Time;durP1;ratioP1;P1;durP2;ratioP2;P2;SDS_P1;SDS_P2;PMS_P1;PMS_P2;Temp;Humidity;BMP_temperature;BMP_pressure;BME280_temperature;BME280_humidity;BME280_pressure;Samples;Min_cycle;Max_cycle;Signal;HPM_P1;HPM_P2
2021/08/12 00:00:57;;;;;;;7.30;6.68;;;14.90;99.90;;;;;;4994600;28;20114;-82
2021/08/12 00:03:22;;;;;;;6.75;6.05;;;14.80;99.90;;;;;;4987093;28;20030;-82
2021/08/12 00:05:48;;;;;;;11.52;7.50;;;14.80;99.90;;;;;;4985867;28;20027;-81
2021/08/12 00:08:14;;;;;;;6.97;6.30;;;14.80;99.90;;;;;;4993535;28;20124;-83
2021/08/12 00:10:39;;;;;;;7.13;6.18;;;14.80;99.90;;;;;;4994292;28;20029;-83
2021/08/12 00:13:05;;;;;;;7.50;6.80;;;14.70;99.90;;;;;;4991705;28;20023;-81
2021/08/12 00:15:30;;;;;;;8.27;7.47;;;14.70;99.90;;;;;;4983566;28;20433;-81
2021/08/12 00:17:56;;;;;;;9.25;8.35;;;14.70;99.90;;;;;;4989384;28;20030;-81
2021/08/12 00:20:22;;;;;;;11.55;8.45;;;14.80;99.90;;;;;;4981751;28;20027;-82
2021/08/12 00:22:47;;;;;;;9.80;8.88;;;14.80;99.90;;;;;;4981373;28;20081;-81
2021/08/12 00:25:13;;;;;;;10.73;7.82;;;14.80;99.90;;;;;;4986377;28;20057;-82
2021/08/12 00:27:38;;;;;;;8.93;7.63;;;14.80;99.90;;;;;;4989738;28;20023;-80
2021/08/12 00:30:05;;;;;;;8.30;7.50;;;14.80;99.90;;;;;;4988982;28;20655;-82
2021/08/12 00:35:00;;;;;;;8.55;7.68;;;14.70;99.90;;;;;;4967217;28;20047;-50
2021/08/12 00:37:25;;;;;;;8.27;7.55;;;14.70;99.90;;;;;;4968508;28;20097;-49
2021/08/12 00:39:51;;;;;;;7.95;7.13;;;14.70;99.90;;;;;;4980154;28;20026;-51
2021/08/12 00:42:17;;;;;;;8.68;6.63;;;14.70;99.90;;;;;;4983830;28;20030;-47
2021/08/12 01:05:20;;;;;;;8.70;7.25;;;14.50;99.90;;;;;;4982035;28;20057;-48
2021/08/12 01:08:03;;;;;;;9.32;6.88;;;14.50;99.90;;;;;;4986222;28;20662;-51
2021/08/12 01:10:56;;;;;;;9.23;6.82;;;14.50;99.90;;;;;;4984709;28;20507;-48
2021/08/12 01:13:37;;;;;;;7.65;6.93;;;14.50;99.90;;;;;;4981278;28;20046;-49
2021/08/12 01:16:06;;;;;;;8.15;7.35;;;14.50;99.90;;;;;;4986709;28;20484;-49
2021/08/12 01:18:45;;;;;;;7.50;5.90;;;14.50;99.90;;;;;;4990774;28;20066;-49
2021/08/12 01:21:26;;;;;;;7.63;6.93;;;14.40;99.90;;;;;;4977312;28;20037;-49
2021/08/12 01:23:58;;;;;;;8.20;7.18;;;14.40;99.90;;;;;;4990754;28;20035;-46
2021/08/12 01:26:24;;;;;;;10.93;7.22;;;14.40;99.90;;;;;;4984144;28;20050;-46
2021/08/12 01:28:52;;;;;;;7.78;6.82;;;14.40;99.90;;;;;;4982704;28;20034;-48
2021/08/12 01:31:29;;;;;;;8.65;7.75;;;14.40;99.90;;;;;;4987282;28;20070;-48
2021/08/12 01:34:31;;;;;;;8.70;6.97;;;14.40;99.90;;;;;;4989915;28;20037;-51
2021/08/12 01:36:58;;;;;;;8.30;7.40;;;14.30;99.90;;;;;;4975948;28;20031;-50
2021/08/12 01:39:25;;;;;;;7.13;6.43;;;14.30;99.90;;;;;;4987878;28;20058;-48
2021/08/12 01:41:54;;;;;;;10.70;7.00;;;14.30;99.90;;;;;;4990112;28;20080;-47
2021/08/12 01:44:23;;;;;;;7.40;6.70;;;14.30;99.90;;;;;;4997216;28;20508;-48
2021/08/12 01:46:49;;;;;;;7.95;7.25;;;14.30;99.90;;;;;;4990076;28;20037;-47
2021/08/12 01:49:15;;;;;;;7.60;6.80;;;14.20;99.90;;;;;;4985831;28;20484;-46
2021/08/12 01:51:41;;;;;;;6.75;6.10;;;14.30;99.90;;;;;;4987851;28;20041;-45
2021/08/12 01:54:08;;;;;;;7.60;6.80;;;14.20;99.90;;;;;;4984812;28;20089;-49
2021/08/12 01:56:34;;;;;;;8.93;6.95;;;14.20;99.90;;;;;;4987295;28;20028;-48
2021/08/12 01:59:02;;;;;;;8.13;7.32;;;14.20;99.90;;;;;;4989662;28;20053;-48
2021/08/12 02:01:29;;;;;;;8.43;7.63;;;14.20;99.90;;;;;;4980446;28;20031;-46
2021/08/12 02:03:56;;;;;;;8.80;7.32;;;14.20;99.90;;;;;;4978940;28;20037;-47
2021/08/12 02:06:23;;;;;;;7.50;6.28;;;14.20;99.90;;;;;;4985384;28;20018;-50
2021/08/12 02:08:49;;;;;;;7.93;7.13;;;14.20;99.90;;;;;;4978822;28;21623;-49
2021/08/12 02:11:15;;;;;;;7.82;7.07;;;14.10;99.90;;;;;;4985144;28;20026;-47
2021/08/12 02:13:41;;;;;;;7.45;6.75;;;14.20;99.90;;;;;;4987171;28;20516;-50
2021/08/12 02:16:09;;;;;;;8.90;7.00;;;14.10;99.90;;;;;;4989495;28;20052;-45
2021/08/12 02:18:42;;;;;;;8.07;7.25;;;14.10;99.90;;;;;;4986567;28;20477;-46
2021/08/12 02:21:15;;;;;;;8.15;7.35;;;14.10;99.90;;;;;;4988618;28;20113;-45
2021/08/12 02:23:45;;;;;;;9.77;7.45;;;14.10;99.90;;;;;;4985349;28;20023;-46
2021/08/12 02:26:18;;;;;;;8.85;7.97;;;14.00;99.90;;;;;;4987254;28;20023;-47
2021/08/12 02:28:44;;;;;;;8.10;7.30;;;14.00;99.90;;;;;;4989641;28;20067;-45
2021/08/12 02:31:15;;;;;;;7.47;6.78;;;14.00;99.90;;;;;;4987057;28;20022;-45
2021/08/12 02:33:43;;;;;;;8.18;7.38;;;14.00;99.90;;;;;;4989448;28;20404;-48
2021/08/12 02:36:09;;;;;;;10.02;7.72;;;13.90;99.90;;;;;;4984094;28;20037;-49
2021/08/12 02:38:38;;;;;;;7.82;6.57;;;14.00;99.90;;;;;;4986528;28;20385;-46
2021/08/12 02:41:06;;;;;;;9.48;7.20;;;13.90;99.90;;;;;;4989442;28;20225;-47
2021/08/12 02:43:36;;;;;;;8.65;7.75;;;13.90;99.90;;;;;;4985475;28;20022;-46
2021/08/12 02:46:03;;;;;;;8.40;7.60;;;13.90;99.90;;;;;;4987942;28;20030;-45
2021/08/12 02:48:31;;;;;;;7.47;6.75;;;13.90;99.90;;;;;;4984952;28;20489;-46
2021/08/12 02:50:58;;;;;;;8.15;7.35;;;13.90;99.90;;;;;;4987440;28;20026;-45
2021/08/12 02:53:27;;;;;;;10.23;8.30;;;13.90;99.90;;;;;;4984928;28;20043;-47
2021/08/12 02:55:54;;;;;;;10.30;8.52;;;13.90;99.90;;;;;;4985761;28;20018;-45
2021/08/12 02:58:21;;;;;;;9.18;8.23;;;13.90;99.90;;;;;;4988803;28;20033;-46
2021/08/12 03:00:47;;;;;;;8.48;7.68;;;13.90;99.90;;;;;;4985953;28;20039;-46
2021/08/12 03:03:17;;;;;;;8.45;7.55;;;13.90;99.90;;;;;;4987774;28;20030;-46
2021/08/12 03:05:42;;;;;;;8.82;7.95;;;13.90;99.90;;;;;;4982792;28;20150;-46
2021/08/12 03:08:12;;;;;;;8.90;7.90;;;13.90;99.90;;;;;;4987123;28;20766;-48
2021/08/12 03:10:39;;;;;;;9.60;8.63;;;13.90;99.90;;;;;;4983509;28;20101;-48
2021/08/12 03:13:06;;;;;;;11.95;7.70;;;13.90;99.90;;;;;;4986321;28;20388;-47
2021/08/12 03:15:32;;;;;;;8.13;7.43;;;13.90;99.90;;;;;;4987944;28;20601;-47
2021/08/12 03:17:59;;;;;;;8.65;7.80;;;13.90;99.90;;;;;;4984870;28;20053;-50
2021/08/12 03:20:29;;;;;;;8.73;7.82;;;13.90;99.90;;;;;;4987611;28;20112;-47
2021/08/12 03:22:56;;;;;;;9.15;8.27;;;13.90;99.90;;;;;;4984491;28;20026;-47
2021/08/12 03:25:23;;;;;;;8.35;7.55;;;13.80;99.90;;;;;;4986650;28;20037;-49
2021/08/12 03:27:49;;;;;;;9.85;8.85;;;13.90;99.90;;;;;;4987731;28;20014;-46
2021/08/12 03:30:15;;;;;;;9.57;8.63;;;13.90;99.90;;;;;;4984669;28;20015;-47
2021/08/12 03:32:41;;;;;;;8.88;8.07;;;13.90;99.90;;;;;;4988221;28;20030;-47
2021/08/12 03:35:07;;;;;;;9.23;8.27;;;13.90;99.90;;;;;;4984976;28;20069;-48
2021/08/12 03:37:32;;;;;;;9.60;8.60;;;13.90;99.90;;;;;;4987436;28;20568;-49
2021/08/12 03:39:58;;;;;;;9.68;8.40;;;13.90;99.90;;;;;;4984580;28;20042;-48
2021/08/12 03:42:24;;;;;;;8.73;7.85;;;13.80;99.90;;;;;;4988600;28;20105;-47
2021/08/12 03:44:49;;;;;;;8.55;7.75;;;13.80;99.90;;;;;;4985000;28;20122;-49
2021/08/12 03:47:18;;;;;;;10.00;8.98;;;13.80;99.90;;;;;;4987101;28;20159;-50
2021/08/12 03:49:44;;;;;;;9.23;8.35;;;13.80;99.90;;;;;;4983943;28;20109;-51
2021/08/12 03:52:09;;;;;;;9.75;8.25;;;13.80;99.90;;;;;;4986385;28;20105;-52
2021/08/12 03:54:38;;;;;;;10.38;9.13;;;13.90;99.90;;;;;;4983118;28;20142;-52
2021/08/12 03:57:04;;;;;;;10.88;9.10;;;13.80;99.90;;;;;;4985044;28;20089;-47
2021/08/12 03:59:30;;;;;;;8.82;7.95;;;13.90;99.90;;;;;;5000320;23;20043;-52
2021/08/12 04:01:55;;;;;;;9.15;8.25;;;13.90;99.90;;;;;;4969336;28;20086;-50
2021/08/12 04:04:21;;;;;;;10.27;8.90;;;13.90;99.90;;;;;;4968575;28;20027;-51
2021/08/12 04:06:47;;;;;;;9.15;8.10;;;13.90;99.90;;;;;;4968509;28;20063;-50
2021/08/12 04:09:12;;;;;;;9.68;8.50;;;13.90;99.90;;;;;;4968928;28;20082;-52
2021/08/12 04:11:38;;;;;;;9.05;8.15;;;13.90;99.90;;;;;;4968831;28;20107;-53
2021/08/12 04:14:04;;;;;;;9.50;8.57;;;13.90;99.90;;;;;;4969170;28;20570;-51
2021/08/12 04:16:29;;;;;;;9.50;8.60;;;13.90;99.90;;;;;;4969069;28;20497;-52
2021/08/12 04:18:55;;;;;;;9.25;8.35;;;13.90;99.90;;;;;;4968496;28;20105;-53
2021/08/12 04:21:20;;;;;;;9.85;8.88;;;13.90;99.90;;;;;;4968953;28;20031;-50
2021/08/12 04:23:46;;;;;;;9.32;8.48;;;13.90;99.90;;;;;;4972554;28;20057;-52
2021/08/12 04:26:11;;;;;;;10.07;8.48;;;13.90;99.90;;;;;;4972042;28;20043;-50
2021/08/12 04:28:37;;;;;;;9.75;8.75;;;14.00;99.90;;;;;;4972710;28;20023;-53
2021/08/12 04:31:03;;;;;;;9.50;8.48;;;14.00;99.90;;;;;;4972207;28;20093;-51
2021/08/12 04:33:30;;;;;;;9.57;8.55;;;14.00;99.90;;;;;;4972698;28;20023;-48
2021/08/12 04:35:56;;;;;;;9.60;8.60;;;14.00;99.90;;;;;;4971421;28;20042;-51
2021/08/12 04:38:21;;;;;;;13.82;9.77;;;14.00;99.90;;;;;;4972184;28;20027;-53
2021/08/12 04:40:47;;;;;;;11.15;8.50;;;14.00;99.90;;;;;;4972225;28;20023;-52
2021/08/12 04:43:13;;;;;;;8.38;7.60;;;14.10;99.90;;;;;;4972046;28;20508;-52
2021/08/12 04:45:38;;;;;;;8.68;7.88;;;14.10;99.90;;;;;;4972225;28;20026;-54
2021/08/12 04:48:04;;;;;;;8.65;7.85;;;14.10;99.90;;;;;;4972039;28;20027;-51
2021/08/12 04:50:31;;;;;;;9.98;8.98;;;14.20;99.90;;;;;;4962689;28;20108;-51
2021/08/12 04:52:57;;;;;;;9.00;8.07;;;14.20;99.90;;;;;;4972347;28;20019;-52
2021/08/12 04:55:24;;;;;;;8.88;8.05;;;14.20;99.90;;;;;;4971368;28;20023;-51
2021/08/12 04:57:49;;;;;;;9.27;8.38;;;14.30;99.90;;;;;;4972230;28;20030;-52
2021/08/12 05:00:16;;;;;;;9.55;8.60;;;14.30;99.90;;;;;;4972076;28;20550;-51
2021/08/12 05:02:41;;;;;;;9.27;8.38;;;14.40;99.90;;;;;;4972045;28;20121;-53
2021/08/12 05:05:08;;;;;;;9.10;8.15;;;14.40;99.90;;;;;;4971984;28;20101;-51
2021/08/12 05:07:33;;;;;;;12.20;8.40;;;14.40;99.90;;;;;;4971556;28;20030;-55
2021/08/12 05:09:59;;;;;;;9.05;7.82;;;14.40;99.90;;;;;;4971794;28;20029;-53
2021/08/12 05:12:25;;;;;;;12.65;7.70;;;14.50;99.90;;;;;;4971731;28;20019;-50
2021/08/12 05:14:51;;;;;;;8.48;7.65;;;14.50;99.90;;;;;;4971876;28;20470;-52
2021/08/12 05:17:16;;;;;;;11.52;8.27;;;14.60;99.90;;;;;;4971763;28;20030;-51
2021/08/12 05:19:43;;;;;;;8.80;8.00;;;14.60;99.90;;;;;;4971236;28;20595;-53
2021/08/12 05:22:12;;;;;;;8.27;7.47;;;14.60;99.90;;;;;;4972028;28;20049;-53
2021/08/12 05:24:38;;;;;;;9.15;8.27;;;14.70;99.90;;;;;;4971005;28;20043;-52
2021/08/12 05:27:05;;;;;;;8.52;7.72;;;14.70;99.90;;;;;;4971760;28;20030;-50
2021/08/12 05:29:30;;;;;;;8.77;7.88;;;14.70;99.90;;;;;;4971585;28;20555;-52
2021/08/12 05:31:56;;;;;;;10.75;7.68;;;14.80;99.90;;;;;;4971394;28;20050;-53
2021/08/12 05:34:21;;;;;;;9.52;8.32;;;14.80;99.90;;;;;;4971158;28;20098;-51
2021/08/12 05:36:47;;;;;;;8.60;7.70;;;14.80;99.90;;;;;;4970054;28;20386;-50
2021/08/12 05:39:13;;;;;;;8.77;7.90;;;14.90;99.90;;;;;;4970964;28;20034;-51
2021/08/12 05:41:38;;;;;;;8.30;7.50;;;14.90;99.90;;;;;;4969945;28;20452;-54
2021/08/12 05:44:04;;;;;;;7.78;7.05;;;14.90;99.90;;;;;;4961663;28;20457;-51
2021/08/12 05:46:30;;;;;;;8.38;7.47;;;15.00;99.90;;;;;;4970991;28;20038;-53
2021/08/12 05:48:55;;;;;;;8.88;7.15;;;15.00;99.90;;;;;;4970865;28;20022;-52
2021/08/12 05:51:21;;;;;;;7.30;6.70;;;15.00;99.90;;;;;;4971316;28;20154;-54
2021/08/12 05:53:46;;;;;;;8.05;7.35;;;15.10;99.90;;;;;;4970999;28;20117;-50
2021/08/12 05:56:12;;;;;;;8.50;7.65;;;15.10;99.90;;;;;;4971142;28;20023;-53
2021/08/12 05:58:39;;;;;;;7.32;6.63;;;15.20;99.90;;;;;;4971025;28;20462;-50
2021/08/12 06:01:07;;;;;;;7.65;6.80;;;15.20;99.90;;;;;;4970656;28;20520;-51
2021/08/12 06:03:34;;;;;;;8.07;7.07;;;15.30;99.90;;;;;;4971131;28;20038;-50
2021/08/12 06:05:59;;;;;;;8.23;7.45;;;15.30;99.90;;;;;;4970565;28;20078;-52
2021/08/12 06:08:25;;;;;;;7.95;7.15;;;15.30;99.90;;;;;;4970589;28;20059;-54
2021/08/12 06:10:50;;;;;;;6.88;6.25;;;15.30;99.90;;;;;;4970466;28;20027;-52
2021/08/12 06:13:16;;;;;;;8.82;7.07;;;15.40;99.90;;;;;;4971110;28;20461;-55
2021/08/12 06:15:42;;;;;;;7.38;6.68;;;15.50;99.90;;;;;;4970463;28;20022;-52
2021/08/12 06:18:09;;;;;;;7.22;6.47;;;15.50;99.90;;;;;;4970525;28;20516;-52
2021/08/12 06:20:35;;;;;;;7.57;6.68;;;15.70;99.90;;;;;;4970768;28;20102;-54
2021/08/12 06:23:00;;;;;;;7.85;7.15;;;15.80;99.90;;;;;;4970384;28;20123;-51
2021/08/12 06:25:26;;;;;;;11.90;8.15;;;15.90;99.90;;;;;;4970503;28;20108;-50
2021/08/12 06:27:52;;;;;;;7.53;6.78;;;16.10;99.90;;;;;;4970297;28;20052;-52
2021/08/12 06:30:18;;;;;;;7.30;6.50;;;16.30;99.90;;;;;;4970279;28;20498;-50
2021/08/12 06:32:43;;;;;;;6.70;6.10;;;16.40;99.90;;;;;;4970579;28;20018;-51
2021/08/12 06:35:12;;;;;;;7.57;6.03;;;16.50;99.90;;;;;;4970055;28;20029;-50
2021/08/12 06:37:45;;;;;;;7.57;6.25;;;16.50;99.90;;;;;;4970077;28;20023;-51
2021/08/12 06:40:14;;;;;;;7.18;6.13;;;16.50;99.90;;;;;;4969786;28;20073;-51
2021/08/12 06:42:39;;;;;;;6.70;6.03;;;16.60;99.90;;;;;;4970527;28;20027;-52
2021/08/12 06:45:06;;;;;;;5.95;5.35;;;16.70;99.90;;;;;;4969191;28;20371;-49
2021/08/12 06:47:33;;;;;;;6.60;6.00;;;16.80;99.90;;;;;;4969902;28;20074;-49
2021/08/12 06:49:59;;;;;;;6.82;6.22;;;16.90;99.90;;;;;;4968762;28;20031;-51
2021/08/12 06:52:24;;;;;;;6.22;5.63;;;17.00;99.90;;;;;;4970185;28;20042;-51
2021/08/12 06:54:50;;;;;;;7.13;6.43;;;17.20;99.90;;;;;;4969145;28;20081;-51
2021/08/12 06:57:16;;;;;;;7.30;5.65;;;17.40;99.90;;;;;;4969974;28;20035;-50
2021/08/12 06:59:41;;;;;;;7.93;6.00;;;17.50;99.90;;;;;;4969382;28;20026;-51
2021/08/12 07:02:07;;;;;;;6.55;5.93;;;17.70;99.90;;;;;;4969791;28;20037;-51
2021/08/12 07:04:32;;;;;;;6.40;5.80;;;17.90;99.90;;;;;;4969838;28;20038;-51
2021/08/12 07:06:58;;;;;;;6.65;5.72;;;18.10;99.90;;;;;;4969788;28;20512;-52
2021/08/12 07:09:23;;;;;;;6.47;5.70;;;18.30;99.90;;;;;;4969246;28;20397;-54
2021/08/12 07:11:52;;;;;;;5.70;5.20;;;18.50;99.90;;;;;;4968228;28;20039;-48
2021/08/12 07:14:18;;;;;;;6.45;5.10;;;18.70;99.90;;;;;;4967027;28;20042;-52
2021/08/12 07:16:44;;;;;;;6.35;4.95;;;18.70;99.90;;;;;;4969361;28;20018;-51
2021/08/12 07:19:09;;;;;;;5.88;5.28;;;18.80;99.90;;;;;;4969395;28;20401;-51
2021/08/12 07:21:35;;;;;;;5.72;5.05;;;19.00;99.90;;;;;;4969654;28;20034;-52
2021/08/12 07:24:00;;;;;;;4.82;4.30;;;19.10;99.90;;;;;;4969217;28;20031;-50
2021/08/12 07:26:26;;;;;;;5.85;4.50;;;19.30;99.90;;;;;;4969531;28;20106;-50
2021/08/12 07:28:52;;;;;;;5.82;4.93;;;19.40;99.90;;;;;;4968151;28;20421;-51
2021/08/12 07:31:17;;;;;;;4.95;4.45;;;19.50;99.90;;;;;;4966634;28;20025;-55
2021/08/12 07:33:44;;;;;;;6.05;4.82;;;19.70;99.90;;;;;;4958184;28;20106;-50
2021/08/12 07:36:10;;;;;;;6.47;4.15;;;19.90;99.90;;;;;;4952679;28;20043;-52
2021/08/12 07:38:36;;;;;;;5.32;4.65;;;20.10;99.90;;;;;;4956622;28;20030;-51
2021/08/12 07:41:01;;;;;;;4.38;3.90;;;20.30;99.90;;;;;;4968600;28;20031;-50
2021/08/12 07:43:28;;;;;;;5.75;4.07;;;20.40;99.90;;;;;;4967455;28;20147;-52
2021/08/12 07:45:54;;;;;;;4.38;3.97;;;20.60;99.90;;;;;;4967312;28;20142;-50
2021/08/12 07:48:20;;;;;;;5.60;4.35;;;20.60;99.90;;;;;;4967829;28;20082;-50
2021/08/12 07:50:46;;;;;;;4.15;3.75;;;20.80;99.90;;;;;;4967625;28;20098;-52
2021/08/12 07:53:12;;;;;;;4.95;4.30;;;20.90;99.90;;;;;;4967189;28;20030;-48
2021/08/12 07:55:38;;;;;;;4.75;4.25;;;20.90;99.90;;;;;;4968034;28;20739;-51
2021/08/12 07:58:04;;;;;;;5.22;4.00;;;20.90;99.90;;;;;;4973369;28;20110;-51
2021/08/12 08:00:30;;;;;;;4.30;3.65;;;20.80;99.90;;;;;;4972414;28;20556;-52
2021/08/12 08:02:55;;;;;;;4.45;3.95;;;20.90;99.90;;;;;;4971653;28;20023;-50
2021/08/12 08:05:25;;;;;;;6.10;4.00;;;21.00;99.90;;;;;;4973066;28;20421;-51
2021/08/12 08:07:52;;;;;;;6.88;4.60;;;21.20;99.90;;;;;;4969809;28;20522;-50
2021/08/12 08:10:20;;;;;;;4.25;3.85;;;21.40;99.90;;;;;;4965575;28;20030;-50
2021/08/12 08:12:46;;;;;;;3.83;3.53;;;21.70;99.90;;;;;;4963397;28;20015;-52
2021/08/12 08:15:14;;;;;;;5.68;4.40;;;21.90;99.90;;;;;;4972475;28;20038;-53
2021/08/12 08:17:39;;;;;;;3.72;3.33;;;22.20;99.90;;;;;;4972725;28;20039;-51
2021/08/12 08:20:07;;;;;;;4.43;4.03;;;22.30;99.90;;;;;;4972679;28;20142;-52
2021/08/12 08:22:33;;;;;;;5.80;4.18;;;22.20;99.90;;;;;;4972696;28;20069;-52
2021/08/12 08:24:59;;;;;;;5.80;4.55;;;22.20;99.90;;;;;;4972604;28;20084;-54
2021/08/12 08:27:24;;;;;;;4.60;4.20;;;22.40;99.90;;;;;;4972812;28;20023;-50
2021/08/12 08:29:51;;;;;;;4.88;4.25;;;22.60;99.90;;;;;;4972577;28;20045;-50
2021/08/12 08:32:17;;;;;;;4.05;3.65;;;22.80;99.90;;;;;;4964893;28;20026;-51
2021/08/12 08:34:43;;;;;;;4.63;3.90;;;23.00;99.90;;;;;;4972148;28;20033;-54
2021/08/12 08:37:09;;;;;;;6.65;3.95;;;23.30;99.90;;;;;;4971675;28;20023;-52
2021/08/12 08:39:35;;;;;;;5.63;3.95;;;23.40;99.90;;;;;;4972683;28;20492;-51
2021/08/12 08:42:01;;;;;;;4.25;3.85;;;23.60;99.90;;;;;;4972944;28;20139;-53
2021/08/12 08:44:28;;;;;;;5.75;3.60;;;23.70;99.90;;;;;;4972058;28;20027;-50
2021/08/12 08:46:55;;;;;;;5.18;4.40;;;23.80;99.90;;;;;;4972104;28;20034;-51
2021/08/12 08:49:22;;;;;;;4.10;3.55;;;23.90;99.90;;;;;;4972496;28;20037;-51
2021/08/12 08:51:50;;;;;;;4.45;3.90;;;24.00;99.90;;;;;;4972170;28;20777;-50
2021/08/12 08:54:16;;;;;;;4.65;4.03;;;24.10;99.90;;;;;;4971110;28;20429;-54
2021/08/12 08:56:45;;;;;;;5.05;3.80;;;24.30;99.90;;;;;;4972222;28;20046;-50
2021/08/12 08:59:12;;;;;;;4.75;4.07;;;24.50;99.90;;;;;;4971961;28;20031;-52
2021/08/12 09:01:41;;;;;;;5.05;4.07;;;24.60;99.90;;;;;;4972433;28;20106;-51
2021/08/12 09:04:06;;;;;;;4.53;4.13;;;24.80;99.90;;;;;;4972053;28;20019;-51
2021/08/12 09:06:32;;;;;;;4.40;3.60;;;24.90;99.90;;;;;;4971927;28;20097;-53
2021/08/12 09:08:58;;;;;;;5.80;3.90;;;25.10;99.90;;;;;;4971305;28;20162;-51
2021/08/12 09:11:25;;;;;;;4.22;3.83;;;25.20;99.50;;;;;;4972352;28;20011;-49
2021/08/12 09:13:51;;;;;;;5.55;3.83;;;25.30;99.90;;;;;;4971983;28;20022;-49
2021/08/12 09:16:43;;;;;;;3.97;3.33;;;25.40;99.90;;;;;;4966453;28;20084;-48
2021/08/12 09:19:25;;;;;;;3.65;3.35;;;25.60;99.90;;;;;;4969516;28;20046;-51
2021/08/12 09:21:53;;;;;;;4.50;4.10;;;25.70;99.90;;;;;;4972071;28;20058;-51
2021/08/12 09:24:20;;;;;;;5.53;3.72;;;25.80;99.90;;;;;;4967637;28;20019;-51
2021/08/12 09:26:47;;;;;;;5.60;3.53;;;25.90;99.90;;;;;;4971465;28;20544;-53
2021/08/12 09:29:27;;;;;;;4.85;3.70;;;25.90;99.40;;;;;;4971172;28;20073;-51
2021/08/12 09:31:59;;;;;;;6.68;4.68;;;26.00;99.50;;;;;;4969186;28;20030;-50
2021/08/12 09:34:38;;;;;;;4.45;3.85;;;26.20;99.90;;;;;;4971114;28;20052;-51
2021/08/12 09:37:08;;;;;;;4.22;3.42;;;26.30;99.00;;;;;;4971125;28;20018;-52
2021/08/12 09:39:35;;;;;;;4.22;3.65;;;26.30;97.70;;;;;;4971044;28;20077;-51
2021/08/12 09:42:03;;;;;;;5.85;3.88;;;26.40;98.20;;;;;;4971049;28;20027;-51
2021/08/12 09:44:34;;;;;;;4.20;3.70;;;26.40;96.90;;;;;;4969228;28;20026;-50
2021/08/12 09:47:14;;;;;;;5.53;4.20;;;26.50;98.00;;;;;;4970968;28;20023;-48
2021/08/12 09:49:42;;;;;;;4.65;3.75;;;26.60;99.40;;;;;;4971141;28;20543;-49
2021/08/12 09:52:28;;;;;;;3.72;3.42;;;26.60;98.20;;;;;;4969551;28;20041;-51
2021/08/12 09:54:59;;;;;;;11.52;4.32;;;26.40;97.90;;;;;;4970556;28;20397;-53
2021/08/12 09:57:32;;;;;;;4.72;4.32;;;26.40;98.60;;;;;;4969968;28;20142;-52
2021/08/12 10:00:00;;;;;;;4.10;3.70;;;26.40;98.80;;;;;;4971320;28;20027;-50
2021/08/12 10:02:29;;;;;;;4.45;4.05;;;26.30;99.00;;;;;;4970861;28;20022;-50
2021/08/12 10:05:09;;;;;;;6.07;4.25;;;26.40;99.10;;;;;;4970140;28;20035;-49
2021/08/12 10:07:37;;;;;;;3.53;3.22;;;26.50;97.90;;;;;;4968578;28;20054;-50
2021/08/12 10:10:12;;;;;;;3.95;3.63;;;26.50;97.80;;;;;;4970463;28;20387;-50
2021/08/12 10:12:47;;;;;;;;;;;26.60;97.80;;;;;;4967743;28;20022;-50
2021/08/12 10:15:22;;;;;;;3.72;3.40;;;26.70;98.70;;;;;;4970993;28;20399;-53
2021/08/12 10:17:48;;;;;;;4.30;3.90;;;26.70;98.30;;;;;;4970498;28;20019;-50
2021/08/12 10:20:19;;;;;;;6.90;4.32;;;26.80;98.40;;;;;;4969652;28;20442;-49
2021/08/12 10:22:47;;;;;;;4.63;4.13;;;26.90;98.10;;;;;;4967529;28;20157;-49
2021/08/12 10:25:15;;;;;;;5.25;4.30;;;26.90;96.70;;;;;;4965553;28;20282;-51
2021/08/12 10:27:41;;;;;;;4.80;4.30;;;26.90;95.90;;;;;;4970178;28;20031;-54
2021/08/12 10:30:09;;;;;;;5.10;4.13;;;26.80;96.20;;;;;;4969070;28;20030;-48
2021/08/12 10:32:37;;;;;;;5.20;4.70;;;26.80;97.60;;;;;;4969098;28;20023;-50
2021/08/12 10:35:04;;;;;;;5.20;3.95;;;26.80;96.80;;;;;;4965248;28;20023;-52
2021/08/12 10:37:30;;;;;;;5.28;4.28;;;26.80;97.40;;;;;;4969203;28;20638;-50
2021/08/12 10:39:57;;;;;;;4.57;4.18;;;27.00;97.50;;;;;;4969028;28;20026;-50
2021/08/12 10:42:23;;;;;;;5.40;4.28;;;27.00;97.10;;;;;;4968647;28;20101;-50
2021/08/12 10:44:50;;;;;;;5.88;4.07;;;27.10;96.20;;;;;;4968624;28;20314;-53
2021/08/12 10:47:41;;;;;;;4.80;4.40;;;27.10;95.40;;;;;;4969617;28;20034;-51
2021/08/12 10:50:27;;;;;;;4.45;4.05;;;26.90;97.30;;;;;;4969646;28;20444;-54
2021/08/12 10:53:01;;;;;;;;;;;26.80;95.20;;;;;;4970681;28;20022;-50
2021/08/12 10:55:27;;;;;;;4.72;4.32;;;26.80;95.50;;;;;;4960469;28;19910;-50
2021/08/12 10:58:29;;;;;;;4.80;4.40;;;26.80;97.00;;;;;;4968556;28;20035;-49
2021/08/12 11:01:00;;;;;;;4.90;4.50;;;26.80;96.20;;;;;;4965116;28;20078;-51
2021/08/12 11:03:34;;;;;;;5.35;4.60;;;26.80;95.60;;;;;;4963157;28;20106;-53
2021/08/12 11:06:05;;;;;;;6.30;4.35;;;26.90;98.00;;;;;;4969367;28;20035;-49
2021/08/12 11:08:51;;;;;;;5.78;4.82;;;27.00;97.50;;;;;;4969423;28;20523;-50
2021/08/12 11:11:23;;;;;;;5.65;4.88;;;27.10;97.50;;;;;;4969778;28;20022;-53
2021/08/12 11:13:50;;;;;;;5.93;4.80;;;27.10;96.10;;;;;;4969350;28;20050;-52
2021/08/12 11:16:16;;;;;;;4.88;4.47;;;27.10;97.80;;;;;;4969204;28;20745;-52
2021/08/12 11:18:49;;;;;;;5.07;4.63;;;27.10;96.30;;;;;;4969164;28;20018;-47
2021/08/12 11:21:30;;;;;;;5.63;4.32;;;27.10;96.00;;;;;;4968779;28;20023;-50
2021/08/12 11:24:24;;;;;;;4.40;4.10;;;27.10;96.10;;;;;;4969282;28;20034;-50
2021/08/12 11:26:53;;;;;;;5.07;4.68;;;27.20;95.60;;;;;;4948733;28;20125;-53
2021/08/12 11:29:38;;;;;;;5.55;4.80;;;27.10;96.70;;;;;;4968761;28;20024;-50
2021/08/12 11:32:10;;;;;;;5.35;4.85;;;27.10;96.50;;;;;;4968543;28;20047;-50
2021/08/12 11:34:52;;;;;;;5.03;4.28;;;26.90;96.80;;;;;;4968488;28;20081;-50
2021/08/12 11:37:28;;;;;;;5.20;4.70;;;26.80;97.00;;;;;;4968263;28;20019;-49
2021/08/12 11:40:02;;;;;;;5.50;4.65;;;26.70;98.00;;;;;;4969154;28;20086;-50
2021/08/12 11:42:30;;;;;;;5.38;4.88;;;26.70;97.10;;;;;;4962873;28;20078;-49
2021/08/12 11:45:00;;;;;;;5.63;5.13;;;26.70;97.50;;;;;;4966747;28;20042;-54
2021/08/12 11:47:26;;;;;;;5.45;4.95;;;26.80;97.70;;;;;;4965735;28;20514;-53
2021/08/12 11:49:55;;;;;;;4.70;4.30;;;26.80;97.10;;;;;;4967615;28;20037;-51
2021/08/12 11:52:28;;;;;;;6.00;5.05;;;26.90;97.30;;;;;;4952128;28;20019;-52
2021/08/12 11:55:18;;;;;;;5.28;4.78;;;27.00;96.80;;;;;;4949145;28;20126;-49
2021/08/12 11:57:48;;;;;;;5.40;4.95;;;27.10;96.10;;;;;;4964115;28;20023;-51
2021/08/12 12:00:15;;;;;;;5.65;5.07;;;27.20;95.90;;;;;;4968122;28;20122;-50
2021/08/12 12:02:46;;;;;;;5.80;5.30;;;27.30;96.10;;;;;;4968269;28;20018;-50
2021/08/12 12:05:12;;;;;;;5.03;4.63;;;27.40;96.30;;;;;;4968789;28;20457;-51
2021/08/12 12:07:47;;;;;;;5.78;4.28;;;27.30;97.50;;;;;;4967065;28;20038;-49
2021/08/12 12:10:33;;;;;;;5.55;5.05;;;27.30;95.40;;;;;;4968396;28;20030;-52
2021/08/12 12:13:12;;;;;;;5.40;4.80;;;27.40;95.10;;;;;;4964812;28;20027;-50
2021/08/12 12:15:52;;;;;;;4.60;4.20;;;27.30;95.00;;;;;;4963331;28;20118;-51
2021/08/12 12:18:31;;;;;;;5.20;4.70;;;27.20;95.50;;;;;;4966573;28;20026;-50
2021/08/12 12:21:17;;;;;;;6.20;5.60;;;27.30;95.10;;;;;;4968202;28;20034;-50
2021/08/12 12:23:45;;;;;;;5.47;4.95;;;27.30;96.40;;;;;;4968622;28;20022;-51
2021/08/12 12:26:21;;;;;;;5.30;4.50;;;27.40;95.40;;;;;;4968314;28;20019;-51
2021/08/12 12:28:50;;;;;;;5.30;4.80;;;27.40;95.20;;;;;;4968554;28;20022;-51
2021/08/12 12:31:22;;;;;;;5.63;5.13;;;27.30;94.70;;;;;;4967185;28;20102;-50
2021/08/12 12:34:04;;;;;;;7.03;4.95;;;27.30;94.90;;;;;;4963444;28;20019;-51
2021/08/12 12:36:37;;;;;;;6.07;5.35;;;27.30;95.10;;;;;;4964040;28;20604;-51
2021/08/12 12:39:03;;;;;;;5.30;4.80;;;27.30;96.60;;;;;;4968388;28;20039;-50
2021/08/12 12:41:30;;;;;;;5.45;4.47;;;27.30;96.50;;;;;;4966893;28;20026;-50
2021/08/12 12:44:10;;;;;;;7.90;4.93;;;27.40;94.40;;;;;;4968304;28;20105;-49
2021/08/12 12:46:35;;;;;;;4.65;4.13;;;27.50;94.30;;;;;;4970654;28;20026;-49
2021/08/12 12:49:25;;;;;;;4.57;4.00;;;27.60;93.50;;;;;;4970647;28;20030;-51
2021/08/12 12:51:51;;;;;;;4.47;4.07;;;27.80;94.50;;;;;;4971225;28;20037;-50
2021/08/12 12:54:30;;;;;;;9.38;4.55;;;28.00;95.20;;;;;;4971048;28;20027;-50
2021/08/12 12:56:55;;;;;;;4.22;3.83;;;28.20;95.70;;;;;;4971745;28;20063;-49
2021/08/12 12:59:21;;;;;;;4.97;4.47;;;28.30;94.60;;;;;;4971859;28;20097;-51
2021/08/12 13:01:55;;;;;;;5.35;4.78;;;28.40;94.80;;;;;;4972331;28;20569;-53
2021/08/12 13:04:21;;;;;;;4.50;4.10;;;28.40;95.20;;;;;;4971107;28;20011;-49
2021/08/12 13:06:46;;;;;;;5.95;4.15;;;28.50;94.00;;;;;;4971885;28;20138;-53
2021/08/12 13:09:30;;;;;;;5.13;3.90;;;28.40;94.20;;;;;;4971447;28;20619;-51
2021/08/12 13:11:56;;;;;;;4.75;4.35;;;28.50;93.90;;;;;;4967719;28;20019;-50
2021/08/12 13:14:32;;;;;;;4.93;4.47;;;28.50;93.60;;;;;;4971663;28;20022;-52
2021/08/12 13:16:58;;;;;;;4.75;4.28;;;28.50;93.30;;;;;;4971952;28;20496;-50